sensor_id;sensor_type;location;lat;lon;timestamp;P1;durP1;ratioP1;P2;durP2;ratioP2
60492;SDS011;46341;51.290;-2.474;2023-04-24T00:00:18;15.45;;;12.75;;
60492;SDS011;46341;51.290;-2.474;2023-04-24T00:02:45;14.93;;;13.38;;
60492;SDS011;46341;51.290;-2.474;2023-04-24T00:05:14;16.17;;;12.93;;
60492;SDS011;46341;51.290;-2.474;2023-04-24T00:07:41;16.23;;;13.10;;
60492;SDS011;46341;51.290;-2.474;2023-04-24T00:10:08;15.60;;;12.95;;
60492;SDS011;46341;51.290;-2.474;2023-04-24T00:15:56;14.30;;;12.02;;
60492;SDS011;46341;51.290;-2.474;2023-04-24T00:18:22;16.60;;;13.38;;
60492;SDS011;46341;51.290;-2.474;2023-04-24T00:20:48;17.13;;;14.05;;
60492;SDS011;46341;51.290;-2.474;2023-04-24T00:23:15;17.13;;;12.75;;
60492;SDS011;46341;51.290;-2.474;2023-04-24T00:25:41;19.90;;;14.05;;
60492;SDS011;46341;51.290;-2.474;2023-04-24T00:28:08;20.05;;;14.45;;
60492;SDS011;46341;51.290;-2.474;2023-04-24T00:30:34;17.05;;;14.00;;
60492;SDS011;46341;51.290;-2.474;2023-04-24T00:33:00;17.50;;;13.45;;
60492;SDS011;46341;51.290;-2.474;2023-04-24T00:35:27;20.80;;;15.18;;
60492;SDS011;46341;51.290;-2.474;2023-04-24T00:37:53;21.85;;;15.23;;
60492;SDS011;46341;51.290;-2.474;2023-04-24T00:40:20;17.95;;;13.85;;
60492;SDS011;46341;51.290;-2.474;2023-04-24T00:42:46;21.52;;;14.82;;
60492;SDS011;46341;51.290;-2.474;2023-04-24T00:45:12;20.40;;;15.13;;
60492;SDS011;46341;51.290;-2.474;2023-04-24T00:47:39;17.48;;;14.43;;
60492;SDS011;46341;51.290;-2.474;2023-04-24T00:50:07;15.95;;;12.88;;
60492;SDS011;46341;51.290;-2.474;2023-04-24T00:52:33;16.15;;;13.55;;
60492;SDS011;46341;51.290;-2.474;2023-04-24T00:55:00;20.00;;;15.50;;
60492;SDS011;46341;51.290;-2.474;2023-04-24T00:57:26;24.17;;;16.95;;
60492;SDS011;46341;51.290;-2.474;2023-04-24T00:59:53;20.23;;;15.82;;
60492;SDS011;46341;51.290;-2.474;2023-04-24T01:02:19;17.88;;;13.57;;
60492;SDS011;46341;51.290;-2.474;2023-04-24T01:04:47;21.10;;;15.88;;
60492;SDS011;46341;51.290;-2.474;2023-04-24T01:07:14;20.00;;;14.63;;
60492;SDS011;46341;51.290;-2.474;2023-04-24T01:09:41;20.67;;;14.32;;
60492;SDS011;46341;51.290;-2.474;2023-04-24T01:12:08;16.63;;;12.40;;
60492;SDS011;46341;51.290;-2.474;2023-04-24T01:14:35;17.67;;;14.20;;
60492;SDS011;46341;51.290;-2.474;2023-04-24T01:17:02;22.40;;;15.27;;
60492;SDS011;46341;51.290;-2.474;2023-04-24T01:19:28;22.05;;;16.10;;
60492;SDS011;46341;51.290;-2.474;2023-04-24T01:21:56;16.13;;;13.63;;
60492;SDS011;46341;51.290;-2.474;2023-04-24T01:24:24;13.45;;;11.07;;
60492;SDS011;46341;51.290;-2.474;2023-04-24T01:26:50;12.88;;;11.00;;
60492;SDS011;46341;51.290;-2.474;2023-04-24T01:29:17;11.93;;;10.68;;
60492;SDS011;46341;51.290;-2.474;2023-04-24T01:31:43;13.80;;;11.52;;
60492;SDS011;46341;51.290;-2.474;2023-04-24T01:34:10;12.38;;;11.07;;
60492;SDS011;46341;51.290;-2.474;2023-04-24T01:36:36;15.20;;;12.80;;
60492;SDS011;46341;51.290;-2.474;2023-04-24T01:39:03;13.70;;;12.20;;
60492;SDS011;46341;51.290;-2.474;2023-04-24T01:41:30;13.77;;;12.25;;
60492;SDS011;46341;51.290;-2.474;2023-04-24T01:43:57;14.55;;;11.63;;
60492;SDS011;46341;51.290;-2.474;2023-04-24T01:46:24;14.25;;;11.27;;
60492;SDS011;46341;51.290;-2.474;2023-04-24T01:48:50;14.38;;;10.55;;
60492;SDS011;46341;51.290;-2.474;2023-04-24T01:51:17;15.15;;;10.98;;
60492;SDS011;46341;51.290;-2.474;2023-04-24T01:53:44;13.98;;;10.52;;
60492;SDS011;46341;51.290;-2.474;2023-04-24T01:56:10;13.80;;;10.60;;
60492;SDS011;46341;51.290;-2.474;2023-04-24T01:58:37;12.32;;;10.70;;
60492;SDS011;46341;51.290;-2.474;2023-04-24T02:01:03;13.35;;;11.18;;
60492;SDS011;46341;51.290;-2.474;2023-04-24T02:03:30;14.73;;;11.55;;
60492;SDS011;46341;51.290;-2.474;2023-04-24T02:05:57;13.30;;;11.65;;
60492;SDS011;46341;51.290;-2.474;2023-04-24T02:08:23;17.60;;;11.70;;
60492;SDS011;46341;51.290;-2.474;2023-04-24T02:10:50;15.50;;;11.27;;
60492;SDS011;46341;51.290;-2.474;2023-04-24T02:13:16;16.45;;;11.63;;
60492;SDS011;46341;51.290;-2.474;2023-04-24T02:15:42;13.95;;;12.30;;
60492;SDS011;46341;51.290;-2.474;2023-04-24T02:18:09;16.83;;;13.07;;
60492;SDS011;46341;51.290;-2.474;2023-04-24T02:20:37;14.18;;;12.77;;
60492;SDS011;46341;51.290;-2.474;2023-04-24T02:23:04;15.27;;;12.57;;
60492;SDS011;46341;51.290;-2.474;2023-04-24T02:25:30;16.45;;;13.02;;
60492;SDS011;46341;51.290;-2.474;2023-04-24T02:27:57;16.25;;;12.05;;
60492;SDS011;46341;51.290;-2.474;2023-04-24T02:30:23;16.60;;;14.32;;
60492;SDS011;46341;51.290;-2.474;2023-04-24T02:32:49;15.80;;;14.02;;
60492;SDS011;46341;51.290;-2.474;2023-04-24T02:35:16;16.45;;;13.23;;
60492;SDS011;46341;51.290;-2.474;2023-04-24T02:37:42;19.02;;;15.18;;
60492;SDS011;46341;51.290;-2.474;2023-04-24T02:40:08;17.67;;;14.98;;
60492;SDS011;46341;51.290;-2.474;2023-04-24T02:42:35;15.20;;;13.60;;
60492;SDS011;46341;51.290;-2.474;2023-04-24T02:45:01;16.90;;;13.25;;
60492;SDS011;46341;51.290;-2.474;2023-04-24T02:47:28;17.08;;;13.60;;
60492;SDS011;46341;51.290;-2.474;2023-04-24T02:49:54;23.88;;;16.60;;
60492;SDS011;46341;51.290;-2.474;2023-04-24T02:52:20;17.60;;;14.77;;
60492;SDS011;46341;51.290;-2.474;2023-04-24T02:54:47;17.30;;;13.60;;
60492;SDS011;46341;51.290;-2.474;2023-04-24T02:57:13;15.10;;;12.80;;
60492;SDS011;46341;51.290;-2.474;2023-04-24T02:59:39;14.75;;;12.32;;
60492;SDS011;46341;51.290;-2.474;2023-04-24T03:02:06;14.55;;;12.05;;
60492;SDS011;46341;51.290;-2.474;2023-04-24T03:04:33;14.15;;;12.43;;
60492;SDS011;46341;51.290;-2.474;2023-04-24T03:06:59;13.13;;;11.82;;
60492;SDS011;46341;51.290;-2.474;2023-04-24T03:09:27;16.05;;;12.10;;
60492;SDS011;46341;51.290;-2.474;2023-04-24T03:11:53;13.27;;;11.98;;
60492;SDS011;46341;51.290;-2.474;2023-04-24T03:14:20;12.95;;;11.57;;
60492;SDS011;46341;51.290;-2.474;2023-04-24T03:16:46;13.90;;;11.48;;
60492;SDS011;46341;51.290;-2.474;2023-04-24T03:19:12;13.50;;;12.02;;
60492;SDS011;46341;51.290;-2.474;2023-04-24T03:21:39;14.07;;;12.15;;
60492;SDS011;46341;51.290;-2.474;2023-04-24T03:24:07;13.57;;;11.13;;
60492;SDS011;46341;51.290;-2.474;2023-04-24T03:26:33;11.87;;;10.77;;
60492;SDS011;46341;51.290;-2.474;2023-04-24T03:29:00;11.25;;;9.57;;
60492;SDS011;46341;51.290;-2.474;2023-04-24T03:31:27;11.77;;;10.52;;
60492;SDS011;46341;51.290;-2.474;2023-04-24T03:33:53;12.23;;;10.55;;
60492;SDS011;46341;51.290;-2.474;2023-04-24T03:36:19;12.70;;;11.13;;
60492;SDS011;46341;51.290;-2.474;2023-04-24T03:38:46;12.82;;;11.30;;
60492;SDS011;46341;51.290;-2.474;2023-04-24T03:41:12;13.80;;;11.07;;
60492;SDS011;46341;51.290;-2.474;2023-04-24T03:43:39;13.13;;;11.27;;
60492;SDS011;46341;51.290;-2.474;2023-04-24T03:46:05;11.55;;;10.35;;
60492;SDS011;46341;51.290;-2.474;2023-04-24T03:48:31;12.30;;;10.82;;
60492;SDS011;46341;51.290;-2.474;2023-04-24T03:50:58;11.32;;;10.20;;
60492;SDS011;46341;51.290;-2.474;2023-04-24T03:53:24;10.82;;;9.82;;
60492;SDS011;46341;51.290;-2.474;2023-04-24T03:55:50;11.35;;;10.23;;
60492;SDS011;46341;51.290;-2.474;2023-04-24T03:58:17;11.85;;;10.65;;
60492;SDS011;46341;51.290;-2.474;2023-04-24T04:00:44;11.50;;;10.13;;
60492;SDS011;46341;51.290;-2.474;2023-04-24T04:03:10;11.68;;;10.48;;
60492;SDS011;46341;51.290;-2.474;2023-04-24T04:05:37;10.88;;;9.77;;
60492;SDS011;46341;51.290;-2.474;2023-04-24T04:08:03;10.85;;;9.75;;
60492;SDS011;46341;51.290;-2.474;2023-04-24T04:10:30;11.75;;;10.52;;
60492;SDS011;46341;51.290;-2.474;2023-04-24T04:12:56;10.95;;;9.77;;
60492;SDS011;46341;51.290;-2.474;2023-04-24T04:15:22;10.32;;;9.43;;
60492;SDS011;46341;51.290;-2.474;2023-04-24T04:17:49;11.60;;;9.63;;
60492;SDS011;46341;51.290;-2.474;2023-04-24T04:20:15;10.88;;;9.43;;
60492;SDS011;46341;51.290;-2.474;2023-04-24T04:22:42;11.38;;;10.00;;
60492;SDS011;46341;51.290;-2.474;2023-04-24T04:25:09;11.57;;;9.55;;
60492;SDS011;46341;51.290;-2.474;2023-04-24T04:27:37;10.77;;;9.68;;
60492;SDS011;46341;51.290;-2.474;2023-04-24T04:30:05;10.73;;;9.63;;
60492;SDS011;46341;51.290;-2.474;2023-04-24T04:32:31;10.18;;;9.27;;
60492;SDS011;46341;51.290;-2.474;2023-04-24T04:35:02;9.88;;;8.88;;
60492;SDS011;46341;51.290;-2.474;2023-04-24T04:37:29;10.43;;;9.32;;
60492;SDS011;46341;51.290;-2.474;2023-04-24T04:42:24;10.00;;;8.98;;
60492;SDS011;46341;51.290;-2.474;2023-04-24T04:44:50;10.10;;;9.10;;
60492;SDS011;46341;51.290;-2.474;2023-04-24T04:47:17;9.98;;;8.98;;
60492;SDS011;46341;51.290;-2.474;2023-04-24T04:49:43;9.75;;;8.85;;
60492;SDS011;46341;51.290;-2.474;2023-04-24T04:52:10;10.98;;;9.77;;
60492;SDS011;46341;51.290;-2.474;2023-04-24T04:54:36;9.57;;;8.65;;
60492;SDS011;46341;51.290;-2.474;2023-04-24T04:57:03;10.50;;;9.10;;
60492;SDS011;46341;51.290;-2.474;2023-04-24T04:59:29;10.30;;;9.27;;
60492;SDS011;46341;51.290;-2.474;2023-04-24T05:01:56;10.52;;;9.38;;
60492;SDS011;46341;51.290;-2.474;2023-04-24T05:04:22;11.07;;;9.98;;
60492;SDS011;46341;51.290;-2.474;2023-04-24T05:06:49;13.07;;;10.20;;
60492;SDS011;46341;51.290;-2.474;2023-04-24T05:11:43;12.57;;;10.45;;
60492;SDS011;46341;51.290;-2.474;2023-04-24T05:14:09;11.23;;;10.15;;
60492;SDS011;46341;51.290;-2.474;2023-04-24T05:16:36;12.00;;;10.68;;
60492;SDS011;46341;51.290;-2.474;2023-04-24T05:19:03;11.27;;;9.95;;
60492;SDS011;46341;51.290;-2.474;2023-04-24T05:21:29;11.00;;;9.88;;
60492;SDS011;46341;51.290;-2.474;2023-04-24T05:23:56;11.15;;;10.05;;
60492;SDS011;46341;51.290;-2.474;2023-04-24T05:26:23;10.52;;;9.52;;
60492;SDS011;46341;51.290;-2.474;2023-04-24T05:28:49;10.48;;;9.48;;
60492;SDS011;46341;51.290;-2.474;2023-04-24T05:31:16;11.25;;;10.13;;
60492;SDS011;46341;51.290;-2.474;2023-04-24T05:36:10;10.90;;;9.80;;
60492;SDS011;46341;51.290;-2.474;2023-04-24T05:38:36;10.93;;;9.63;;
60492;SDS011;46341;51.290;-2.474;2023-04-24T05:41:03;11.43;;;10.32;;
60492;SDS011;46341;51.290;-2.474;2023-04-24T05:43:29;11.57;;;9.90;;
60492;SDS011;46341;51.290;-2.474;2023-04-24T05:45:55;13.88;;;11.02;;
60492;SDS011;46341;51.290;-2.474;2023-04-24T05:48:22;11.80;;;10.60;;
60492;SDS011;46341;51.290;-2.474;2023-04-24T05:50:49;14.27;;;10.45;;
60492;SDS011;46341;51.290;-2.474;2023-04-24T05:53:15;15.00;;;12.07;;
60492;SDS011;46341;51.290;-2.474;2023-04-24T05:55:41;16.10;;;12.35;;
60492;SDS011;46341;51.290;-2.474;2023-04-24T05:58:08;15.45;;;12.90;;
60492;SDS011;46341;51.290;-2.474;2023-04-24T06:00:34;15.55;;;12.32;;
60492;SDS011;46341;51.290;-2.474;2023-04-24T06:03:01;14.70;;;11.70;;
60492;SDS011;46341;51.290;-2.474;2023-04-24T06:05:30;13.38;;;11.98;;
60492;SDS011;46341;51.290;-2.474;2023-04-24T06:07:57;13.90;;;11.85;;
60492;SDS011;46341;51.290;-2.474;2023-04-24T06:10:23;16.00;;;12.90;;
60492;SDS011;46341;51.290;-2.474;2023-04-24T06:12:49;16.52;;;12.13;;
60492;SDS011;46341;51.290;-2.474;2023-04-24T06:15:16;13.02;;;11.38;;
60492;SDS011;46341;51.290;-2.474;2023-04-24T06:17:42;14.35;;;11.73;;
60492;SDS011;46341;51.290;-2.474;2023-04-24T06:20:09;14.57;;;11.82;;
60492;SDS011;46341;51.290;-2.474;2023-04-24T06:25:03;12.55;;;11.20;;
60492;SDS011;46341;51.290;-2.474;2023-04-24T06:27:30;13.43;;;12.02;;
60492;SDS011;46341;51.290;-2.474;2023-04-24T06:29:57;13.23;;;11.57;;
60492;SDS011;46341;51.290;-2.474;2023-04-24T06:32:23;14.27;;;11.57;;
60492;SDS011;46341;51.290;-2.474;2023-04-24T06:34:51;13.68;;;10.90;;
60492;SDS011;46341;51.290;-2.474;2023-04-24T06:37:18;16.17;;;12.40;;
60492;SDS011;46341;51.290;-2.474;2023-04-24T06:39:44;13.43;;;11.43;;
60492;SDS011;46341;51.290;-2.474;2023-04-24T06:42:11;15.75;;;12.68;;
60492;SDS011;46341;51.290;-2.474;2023-04-24T06:44:37;13.05;;;11.73;;
60492;SDS011;46341;51.290;-2.474;2023-04-24T06:47:07;13.00;;;11.75;;
60492;SDS011;46341;51.290;-2.474;2023-04-24T06:49:37;13.82;;;12.48;;
60492;SDS011;46341;51.290;-2.474;2023-04-24T06:52:03;14.27;;;12.77;;
60492;SDS011;46341;51.290;-2.474;2023-04-24T06:54:30;14.03;;;12.73;;
60492;SDS011;46341;51.290;-2.474;2023-04-24T06:56:57;14.05;;;12.55;;
60492;SDS011;46341;51.290;-2.474;2023-04-24T06:59:24;14.27;;;12.93;;
60492;SDS011;46341;51.290;-2.474;2023-04-24T07:01:50;14.43;;;13.00;;
60492;SDS011;46341;51.290;-2.474;2023-04-24T07:04:20;14.98;;;13.48;;
60492;SDS011;46341;51.290;-2.474;2023-04-24T07:06:48;13.93;;;12.60;;
60492;SDS011;46341;51.290;-2.474;2023-04-24T07:09:15;14.75;;;13.25;;
60492;SDS011;46341;51.290;-2.474;2023-04-24T07:11:43;14.93;;;13.48;;
60492;SDS011;46341;51.290;-2.474;2023-04-24T07:14:10;15.50;;;13.82;;
60492;SDS011;46341;51.290;-2.474;2023-04-24T07:16:37;15.23;;;13.63;;
60492;SDS011;46341;51.290;-2.474;2023-04-24T07:19:03;15.10;;;13.63;;
60492;SDS011;46341;51.290;-2.474;2023-04-24T07:21:30;22.75;;;20.35;;
60492;SDS011;46341;51.290;-2.474;2023-04-24T07:23:58;17.83;;;15.10;;
60492;SDS011;46341;51.290;-2.474;2023-04-24T07:26:25;14.27;;;12.77;;
60492;SDS011;46341;51.290;-2.474;2023-04-24T07:28:51;15.73;;;14.23;;
60492;SDS011;46341;51.290;-2.474;2023-04-24T07:31:18;15.98;;;14.48;;
60492;SDS011;46341;51.290;-2.474;2023-04-24T07:33:44;14.40;;;12.90;;
60492;SDS011;46341;51.290;-2.474;2023-04-24T07:36:11;14.80;;;13.40;;
60492;SDS011;46341;51.290;-2.474;2023-04-24T07:38:41;14.25;;;12.77;;
60492;SDS011;46341;51.290;-2.474;2023-04-24T07:41:08;16.50;;;13.15;;
60492;SDS011;46341;51.290;-2.474;2023-04-24T07:43:34;14.63;;;13.02;;
60492;SDS011;46341;51.290;-2.474;2023-04-24T07:46:01;13.15;;;11.85;;
60492;SDS011;46341;51.290;-2.474;2023-04-24T07:48:27;13.77;;;12.27;;
60492;SDS011;46341;51.290;-2.474;2023-04-24T07:50:54;12.23;;;10.82;;
60492;SDS011;46341;51.290;-2.474;2023-04-24T07:53:20;12.35;;;11.15;;
60492;SDS011;46341;51.290;-2.474;2023-04-24T07:55:47;11.68;;;10.48;;
60492;SDS011;46341;51.290;-2.474;2023-04-24T07:58:13;11.63;;;10.23;;
60492;SDS011;46341;51.290;-2.474;2023-04-24T08:00:40;12.07;;;10.73;;
60492;SDS011;46341;51.290;-2.474;2023-04-24T08:03:06;11.32;;;10.20;;
60492;SDS011;46341;51.290;-2.474;2023-04-24T08:05:33;12.13;;;11.03;;
60492;SDS011;46341;51.290;-2.474;2023-04-24T08:08:00;13.00;;;10.88;;
60492;SDS011;46341;51.290;-2.474;2023-04-24T08:10:26;12.93;;;11.65;;
60492;SDS011;46341;51.290;-2.474;2023-04-24T08:12:52;13.60;;;12.00;;
60492;SDS011;46341;51.290;-2.474;2023-04-24T08:15:19;15.18;;;11.98;;
60492;SDS011;46341;51.290;-2.474;2023-04-24T08:17:45;14.27;;;12.57;;
60492;SDS011;46341;51.290;-2.474;2023-04-24T08:20:12;16.65;;;14.10;;
60492;SDS011;46341;51.290;-2.474;2023-04-24T08:22:41;16.05;;;14.02;;
60492;SDS011;46341;51.290;-2.474;2023-04-24T08:25:09;18.17;;;15.00;;
60492;SDS011;46341;51.290;-2.474;2023-04-24T08:27:35;17.83;;;14.38;;
60492;SDS011;46341;51.290;-2.474;2023-04-24T08:30:03;18.50;;;15.27;;
60492;SDS011;46341;51.290;-2.474;2023-04-24T08:32:29;17.15;;;15.35;;
60492;SDS011;46341;51.290;-2.474;2023-04-24T08:34:56;16.38;;;13.98;;
60492;SDS011;46341;51.290;-2.474;2023-04-24T08:37:23;16.13;;;14.55;;
60492;SDS011;46341;51.290;-2.474;2023-04-24T08:39:50;14.43;;;12.77;;
60492;SDS011;46341;51.290;-2.474;2023-04-24T08:42:16;12.48;;;11.27;;
60492;SDS011;46341;51.290;-2.474;2023-04-24T08:44:43;12.50;;;10.95;;
60492;SDS011;46341;51.290;-2.474;2023-04-24T08:47:10;12.02;;;10.02;;
60492;SDS011;46341;51.290;-2.474;2023-04-24T08:49:39;10.57;;;9.55;;
60492;SDS011;46341;51.290;-2.474;2023-04-24T08:52:06;10.85;;;8.85;;
60492;SDS011;46341;51.290;-2.474;2023-04-24T08:54:34;8.90;;;8.10;;
60492;SDS011;46341;51.290;-2.474;2023-04-24T08:57:01;9.82;;;7.85;;
60492;SDS011;46341;51.290;-2.474;2023-04-24T08:59:32;9.15;;;7.90;;
60492;SDS011;46341;51.290;-2.474;2023-04-24T09:01:59;8.27;;;7.47;;
60492;SDS011;46341;51.290;-2.474;2023-04-24T09:04:26;7.83;;;7.13;;
60492;SDS011;46341;51.290;-2.474;2023-04-24T09:06:55;8.05;;;7.35;;
60492;SDS011;46341;51.290;-2.474;2023-04-24T09:09:22;7.47;;;6.78;;
60492;SDS011;46341;51.290;-2.474;2023-04-24T09:11:49;7.50;;;6.55;;
60492;SDS011;46341;51.290;-2.474;2023-04-24T09:14:16;9.98;;;7.32;;
60492;SDS011;46341;51.290;-2.474;2023-04-24T09:16:43;8.35;;;7.43;;
60492;SDS011;46341;51.290;-2.474;2023-04-24T09:19:09;8.52;;;7.40;;
60492;SDS011;46341;51.290;-2.474;2023-04-24T09:21:36;8.35;;;7.05;;
60492;SDS011;46341;51.290;-2.474;2023-04-24T09:24:05;6.95;;;6.25;;
60492;SDS011;46341;51.290;-2.474;2023-04-24T09:26:34;6.47;;;5.93;;
60492;SDS011;46341;51.290;-2.474;2023-04-24T09:29:02;6.28;;;5.65;;
60492;SDS011;46341;51.290;-2.474;2023-04-24T09:31:29;6.65;;;5.88;;
60492;SDS011;46341;51.290;-2.474;2023-04-24T09:38:57;5.65;;;5.13;;
60492;SDS011;46341;51.290;-2.474;2023-04-24T09:41:23;6.18;;;5.03;;
60492;SDS011;46341;51.290;-2.474;2023-04-24T09:43:50;6.82;;;5.32;;
60492;SDS011;46341;51.290;-2.474;2023-04-24T09:46:16;8.25;;;5.50;;
60492;SDS011;46341;51.290;-2.474;2023-04-24T09:48:44;6.40;;;5.72;;
60492;SDS011;46341;51.290;-2.474;2023-04-24T09:51:11;5.83;;;4.83;;
60492;SDS011;46341;51.290;-2.474;2023-04-24T09:53:38;7.50;;;5.25;;
60492;SDS011;46341;51.290;-2.474;2023-04-24T09:56:09;9.80;;;5.32;;
60492;SDS011;46341;51.290;-2.474;2023-04-24T09:58:36;10.70;;;6.05;;
60492;SDS011;46341;51.290;-2.474;2023-04-24T10:01:02;10.10;;;5.30;;
60492;SDS011;46341;51.290;-2.474;2023-04-24T10:03:30;8.63;;;6.07;;
60492;SDS011;46341;51.290;-2.474;2023-04-24T10:06:00;9.15;;;6.32;;
60492;SDS011;46341;51.290;-2.474;2023-04-24T10:08:27;14.57;;;7.13;;
60492;SDS011;46341;51.290;-2.474;2023-04-24T10:10:59;10.15;;;6.00;;
60492;SDS011;46341;51.290;-2.474;2023-04-24T10:13:25;8.80;;;6.75;;
60492;SDS011;46341;51.290;-2.474;2023-04-24T10:15:52;10.40;;;6.60;;
60492;SDS011;46341;51.290;-2.474;2023-04-24T10:18:19;13.50;;;8.80;;
60492;SDS011;46341;51.290;-2.474;2023-04-24T10:20:47;18.05;;;12.00;;
60492;SDS011;46341;51.290;-2.474;2023-04-24T10:23:13;12.70;;;7.82;;
60492;SDS011;46341;51.290;-2.474;2023-04-24T10:25:40;12.57;;;7.80;;
60492;SDS011;46341;51.290;-2.474;2023-04-24T10:28:06;10.93;;;7.20;;
60492;SDS011;46341;51.290;-2.474;2023-04-24T10:30:36;14.05;;;7.30;;
60492;SDS011;46341;51.290;-2.474;2023-04-24T10:33:03;9.90;;;6.53;;
60492;SDS011;46341;51.290;-2.474;2023-04-24T10:35:31;11.63;;;6.57;;
60492;SDS011;46341;51.290;-2.474;2023-04-24T10:37:58;7.07;;;5.65;;
60492;SDS011;46341;51.290;-2.474;2023-04-24T10:40:26;12.63;;;8.02;;
60492;SDS011;46341;51.290;-2.474;2023-04-24T10:42:52;18.80;;;13.60;;
60492;SDS011;46341;51.290;-2.474;2023-04-24T10:45:24;19.15;;;11.95;;
60492;SDS011;46341;51.290;-2.474;2023-04-24T10:47:56;13.10;;;9.38;;
60492;SDS011;46341;51.290;-2.474;2023-04-24T10:50:25;7.20;;;6.50;;
60492;SDS011;46341;51.290;-2.474;2023-04-24T10:52:51;7.90;;;6.82;;
60492;SDS011;46341;51.290;-2.474;2023-04-24T10:55:40;14.13;;;12.63;;
60492;SDS011;46341;51.290;-2.474;2023-04-24T10:58:05;13.70;;;12.40;;
60492;SDS011;46341;51.290;-2.474;2023-04-24T11:00:31;16.02;;;14.43;;
60492;SDS011;46341;51.290;-2.474;2023-04-24T11:02:58;10.32;;;9.38;;
60492;SDS011;46341;51.290;-2.474;2023-04-24T11:05:48;9.27;;;8.38;;
60492;SDS011;46341;51.290;-2.474;2023-04-24T11:08:16;8.70;;;7.97;;
60492;SDS011;46341;51.290;-2.474;2023-04-24T11:10:53;8.85;;;8.05;;
60492;SDS011;46341;51.290;-2.474;2023-04-24T11:14:00;9.77;;;8.50;;
60492;SDS011;46341;51.290;-2.474;2023-04-24T11:18:51;8.30;;;7.50;;
60492;SDS011;46341;51.290;-2.474;2023-04-24T11:21:19;7.40;;;6.70;;
60492;SDS011;46341;51.290;-2.474;2023-04-24T11:23:46;7.25;;;6.57;;
60492;SDS011;46341;51.290;-2.474;2023-04-24T11:26:16;6.38;;;5.78;;
60492;SDS011;46341;51.290;-2.474;2023-04-24T11:28:47;6.60;;;6.00;;
60492;SDS011;46341;51.290;-2.474;2023-04-24T11:31:34;6.20;;;5.70;;
60492;SDS011;46341;51.290;-2.474;2023-04-24T11:34:10;6.22;;;5.57;;
60492;SDS011;46341;51.290;-2.474;2023-04-24T11:36:36;5.55;;;5.13;;
60492;SDS011;46341;51.290;-2.474;2023-04-24T11:39:03;4.47;;;4.20;;
60492;SDS011;46341;51.290;-2.474;2023-04-24T11:41:29;4.82;;;4.43;;
60492;SDS011;46341;51.290;-2.474;2023-04-24T11:43:56;4.57;;;4.20;;
60492;SDS011;46341;51.290;-2.474;2023-04-24T11:46:26;5.45;;;4.32;;
60492;SDS011;46341;51.290;-2.474;2023-04-24T11:48:53;4.75;;;4.45;;
60492;SDS011;46341;51.290;-2.474;2023-04-24T11:51:19;4.85;;;4.45;;
60492;SDS011;46341;51.290;-2.474;2023-04-24T11:53:46;5.10;;;4.70;;
60492;SDS011;46341;51.290;-2.474;2023-04-24T11:56:17;5.57;;;5.07;;
60492;SDS011;46341;51.290;-2.474;2023-04-24T11:58:44;5.65;;;5.20;;
60492;SDS011;46341;51.290;-2.474;2023-04-24T12:01:11;5.82;;;5.32;;
60492;SDS011;46341;51.290;-2.474;2023-04-24T12:03:38;5.97;;;5.47;;
60492;SDS011;46341;51.290;-2.474;2023-04-24T12:06:09;6.80;;;6.28;;
60492;SDS011;46341;51.290;-2.474;2023-04-24T12:08:35;8.10;;;7.40;;
60492;SDS011;46341;51.290;-2.474;2023-04-24T12:11:04;8.27;;;7.45;;
60492;SDS011;46341;51.290;-2.474;2023-04-24T12:13:31;7.82;;;7.13;;
60492;SDS011;46341;51.290;-2.474;2023-04-24T12:15:58;8.13;;;7.40;;
60492;SDS011;46341;51.290;-2.474;2023-04-24T12:18:25;8.70;;;7.80;;
60492;SDS011;46341;51.290;-2.474;2023-04-24T12:20:52;7.22;;;6.53;;
60492;SDS011;46341;51.290;-2.474;2023-04-24T12:23:34;9.70;;;7.90;;
60492;SDS011;46341;51.290;-2.474;2023-04-24T12:26:03;9.40;;;8.23;;
60492;SDS011;46341;51.290;-2.474;2023-04-24T12:28:36;11.88;;;10.77;;
60492;SDS011;46341;51.290;-2.474;2023-04-24T12:31:03;10.38;;;9.55;;
60492;SDS011;46341;51.290;-2.474;2023-04-24T12:33:34;9.27;;;8.45;;
60492;SDS011;46341;51.290;-2.474;2023-04-24T12:36:00;9.45;;;8.65;;
60492;SDS011;46341;51.290;-2.474;2023-04-24T12:38:28;8.80;;;8.10;;
60492;SDS011;46341;51.290;-2.474;2023-04-24T12:41:02;7.80;;;7.20;;
60492;SDS011;46341;51.290;-2.474;2023-04-24T12:43:30;8.93;;;8.13;;
60492;SDS011;46341;51.290;-2.474;2023-04-24T12:45:57;8.57;;;7.67;;
60492;SDS011;46341;51.290;-2.474;2023-04-24T12:48:23;8.80;;;8.00;;
60492;SDS011;46341;51.290;-2.474;2023-04-24T12:50:50;7.85;;;7.25;;
60492;SDS011;46341;51.290;-2.474;2023-04-24T12:53:16;9.15;;;8.35;;
60492;SDS011;46341;51.290;-2.474;2023-04-24T12:55:43;8.20;;;7.55;;
60492;SDS011;46341;51.290;-2.474;2023-04-24T13:00:37;8.43;;;7.72;;
60492;SDS011;46341;51.290;-2.474;2023-04-24T13:03:04;9.02;;;8.23;;
60492;SDS011;46341;51.290;-2.474;2023-04-24T13:05:31;8.57;;;7.77;;
60492;SDS011;46341;51.290;-2.474;2023-04-24T13:07:57;8.05;;;7.35;;
60492;SDS011;46341;51.290;-2.474;2023-04-24T13:10:24;8.25;;;7.45;;
60492;SDS011;46341;51.290;-2.474;2023-04-24T13:12:51;8.00;;;7.20;;
60492;SDS011;46341;51.290;-2.474;2023-04-24T13:15:17;8.13;;;7.32;;
60492;SDS011;46341;51.290;-2.474;2023-04-24T13:17:43;8.98;;;8.18;;
60492;SDS011;46341;51.290;-2.474;2023-04-24T13:20:10;7.88;;;7.18;;
60492;SDS011;46341;51.290;-2.474;2023-04-24T13:22:37;8.18;;;7.47;;
60492;SDS011;46341;51.290;-2.474;2023-04-24T13:25:03;9.25;;;8.43;;
60492;SDS011;46341;51.290;-2.474;2023-04-24T13:27:32;9.55;;;8.65;;
60492;SDS011;46341;51.290;-2.474;2023-04-24T13:29:59;10.15;;;9.15;;
60492;SDS011;46341;51.290;-2.474;2023-04-24T13:32:25;10.63;;;9.82;;
60492;SDS011;46341;51.290;-2.474;2023-04-24T13:34:52;9.93;;;9.07;;
60492;SDS011;46341;51.290;-2.474;2023-04-24T13:37:18;9.27;;;8.38;;
60492;SDS011;46341;51.290;-2.474;2023-04-24T13:39:45;9.60;;;8.77;;
60492;SDS011;46341;51.290;-2.474;2023-04-24T13:42:11;9.23;;;8.50;;
60492;SDS011;46341;51.290;-2.474;2023-04-24T13:44:37;9.23;;;8.43;;
60492;SDS011;46341;51.290;-2.474;2023-04-24T13:47:04;8.52;;;7.60;;
60492;SDS011;46341;51.290;-2.474;2023-04-24T13:49:30;8.90;;;8.15;;
60492;SDS011;46341;51.290;-2.474;2023-04-24T13:51:57;9.38;;;8.48;;
60492;SDS011;46341;51.290;-2.474;2023-04-24T13:54:23;8.48;;;7.68;;
60492;SDS011;46341;51.290;-2.474;2023-04-24T13:56:52;9.00;;;8.20;;
60492;SDS011;46341;51.290;-2.474;2023-04-24T13:59:19;7.97;;;7.35;;
60492;SDS011;46341;51.290;-2.474;2023-04-24T14:01:46;8.02;;;7.28;;
60492;SDS011;46341;51.290;-2.474;2023-04-24T14:04:12;8.20;;;7.50;;
60492;SDS011;46341;51.290;-2.474;2023-04-24T14:06:38;8.63;;;7.90;;
60492;SDS011;46341;51.290;-2.474;2023-04-24T14:09:05;8.05;;;7.40;;
60492;SDS011;46341;51.290;-2.474;2023-04-24T14:11:33;8.87;;;8.17;;
60492;SDS011;46341;51.290;-2.474;2023-04-24T14:14:00;8.65;;;7.85;;
60492;SDS011;46341;51.290;-2.474;2023-04-24T14:16:26;10.68;;;8.35;;
60492;SDS011;46341;51.290;-2.474;2023-04-24T14:18:53;9.40;;;8.60;;
60492;SDS011;46341;51.290;-2.474;2023-04-24T14:21:19;8.95;;;8.15;;
60492;SDS011;46341;51.290;-2.474;2023-04-24T14:23:45;8.13;;;7.45;;
60492;SDS011;46341;51.290;-2.474;2023-04-24T14:26:12;7.75;;;7.15;;
60492;SDS011;46341;51.290;-2.474;2023-04-24T14:28:38;7.60;;;6.90;;
60492;SDS011;46341;51.290;-2.474;2023-04-24T14:31:05;6.70;;;6.20;;
60492;SDS011;46341;51.290;-2.474;2023-04-24T14:33:32;7.63;;;6.90;;
60492;SDS011;46341;51.290;-2.474;2023-04-24T14:35:59;8.60;;;7.90;;
60492;SDS011;46341;51.290;-2.474;2023-04-24T14:38:26;7.45;;;6.75;;
60492;SDS011;46341;51.290;-2.474;2023-04-24T14:40:52;6.78;;;6.20;;